sensor_id;sensor_type;location;lat;lon;timestamp;pressure;altitude;pressure_sealevel;temperature;humidity
8366;BME280;4220;42.502;24.188;2022-08-19T00:00:05;94956.63;;;22.03;74.63
8366;BME280;4220;42.502;24.188;2022-08-19T00:02:33;94961.94;;;22.08;73.53
8366;BME280;4220;42.502;24.188;2022-08-19T00:05:01;94948.56;;;22.17;73.25
8366;BME280;4220;42.502;24.188;2022-08-19T00:07:29;94963.03;;;22.07;73.30
8366;BME280;4220;42.502;24.188;2022-08-19T00:09:56;94952.56;;;22.19;73.18
8366;BME280;4220;42.502;24.188;2022-08-19T00:12:23;94958.19;;;22.36;72.39
8366;BME280;4220;42.502;24.188;2022-08-19T00:14:49;94965.63;;;22.44;71.66
8366;BME280;4220;42.502;24.188;2022-08-19T00:17:20;94961.78;;;22.18;73.07
8366;BME280;4220;42.502;24.188;2022-08-19T00:19:47;94938.06;;;22.15;73.23
8366;BME280;4220;42.502;24.188;2022-08-19T00:22:13;94952.44;;;22.10;73.36
8366;BME280;4220;42.502;24.188;2022-08-19T00:24:42;94933.19;;;21.66;75.00
8366;BME280;4220;42.502;24.188;2022-08-19T00:27:09;94942.88;;;21.86;74.69
8366;BME280;4220;42.502;24.188;2022-08-19T00:29:36;94942.34;;;21.84;75.21
8366;BME280;4220;42.502;24.188;2022-08-19T00:32:03;94921.28;;;21.86;75.36
8366;BME280;4220;42.502;24.188;2022-08-19T00:34:30;94937.03;;;21.79;74.68
8366;BME280;4220;42.502;24.188;2022-08-19T00:36:57;94941.53;;;21.83;74.43
8366;BME280;4220;42.502;24.188;2022-08-19T00:39:25;94939.22;;;21.58;75.17
8366;BME280;4220;42.502;24.188;2022-08-19T00:41:53;94923.28;;;21.62;75.45
8366;BME280;4220;42.502;24.188;2022-08-19T00:44:22;94925.19;;;21.75;75.01
8366;BME280;4220;42.502;24.188;2022-08-19T00:46:51;94945.22;;;21.74;74.94
8366;BME280;4220;42.502;24.188;2022-08-19T00:49:24;94917.78;;;21.67;75.18
8366;BME280;4220;42.502;24.188;2022-08-19T00:51:56;94922.88;;;21.87;74.38
8366;BME280;4220;42.502;24.188;2022-08-19T00:54:26;94937.09;;;21.92;74.13
8366;BME280;4220;42.502;24.188;2022-08-19T00:56:55;94924.81;;;22.00;74.21
8366;BME280;4220;42.502;24.188;2022-08-19T00:59:22;94928.00;;;22.02;73.51
8366;BME280;4220;42.502;24.188;2022-08-19T01:01:48;94929.28;;;21.91;74.39
8366;BME280;4220;42.502;24.188;2022-08-19T01:04:15;94944.81;;;21.99;74.11
8366;BME280;4220;42.502;24.188;2022-08-19T01:06:42;94931.41;;;21.94;74.44
8366;BME280;4220;42.502;24.188;2022-08-19T01:09:09;94940.00;;;21.77;75.97
8366;BME280;4220;42.502;24.188;2022-08-19T01:11:40;94935.88;;;21.85;75.96
8366;BME280;4220;42.502;24.188;2022-08-19T01:14:11;94938.63;;;21.80;76.12
8366;BME280;4220;42.502;24.188;2022-08-19T01:16:39;94931.41;;;21.94;75.32
8366;BME280;4220;42.502;24.188;2022-08-19T01:19:13;94935.78;;;21.71;76.30
8366;BME280;4220;42.502;24.188;2022-08-19T01:21:47;94896.75;;;21.31;76.81
8366;BME280;4220;42.502;24.188;2022-08-19T01:24:18;94940.63;;;21.56;77.18
8366;BME280;4220;42.502;24.188;2022-08-19T01:26:47;94927.13;;;21.56;77.20
8366;BME280;4220;42.502;24.188;2022-08-19T01:29:14;94936.84;;;21.38;78.48
8366;BME280;4220;42.502;24.188;2022-08-19T01:31:41;94938.88;;;21.46;78.31
8366;BME280;4220;42.502;24.188;2022-08-19T01:34:08;94916.50;;;21.45;77.64
8366;BME280;4220;42.502;24.188;2022-08-19T01:36:37;94946.59;;;21.71;77.04
8366;BME280;4220;42.502;24.188;2022-08-19T01:39:07;94880.25;;;21.33;76.95
8366;BME280;4220;42.502;24.188;2022-08-19T01:41:36;94949.38;;;21.66;77.14
8366;BME280;4220;42.502;24.188;2022-08-19T01:44:04;94951.72;;;21.54;77.84
8366;BME280;4220;42.502;24.188;2022-08-19T01:46:32;94949.91;;;21.49;78.31
8366;BME280;4220;42.502;24.188;2022-08-19T01:48:59;94911.44;;;21.02;79.61
8366;BME280;4220;42.502;24.188;2022-08-19T01:51:26;94955.28;;;21.12;80.93
8366;BME280;4220;42.502;24.188;2022-08-19T01:53:54;94958.84;;;21.08;81.59
8366;BME280;4220;42.502;24.188;2022-08-19T01:56:22;94951.34;;;21.23;81.11
8366;BME280;4220;42.502;24.188;2022-08-19T01:58:54;94952.44;;;21.22;80.95
8366;BME280;4220;42.502;24.188;2022-08-19T02:01:22;94949.06;;;21.30;80.64
8366;BME280;4220;42.502;24.188;2022-08-19T02:03:49;94957.91;;;21.36;80.51
8366;BME280;4220;42.502;24.188;2022-08-19T02:06:18;94945.59;;;21.30;80.73
8366;BME280;4220;42.502;24.188;2022-08-19T02:08:45;94905.13;;;21.11;80.43
8366;BME280;4220;42.502;24.188;2022-08-19T02:11:19;94952.94;;;21.43;79.87
8366;BME280;4220;42.502;24.188;2022-08-19T02:13:51;94947.63;;;21.38;80.26
8366;BME280;4220;42.502;24.188;2022-08-19T02:16:18;94938.44;;;21.39;80.18
8366;BME280;4220;42.502;24.188;2022-08-19T02:18:46;94939.19;;;21.44;80.30
8366;BME280;4220;42.502;24.188;2022-08-19T02:21:14;94948.72;;;21.56;79.93
8366;BME280;4220;42.502;24.188;2022-08-19T02:23:41;94949.81;;;21.55;79.97
8366;BME280;4220;42.502;24.188;2022-08-19T02:26:08;94947.19;;;21.31;80.85
8366;BME280;4220;42.502;24.188;2022-08-19T02:28:35;94959.53;;;21.37;81.08
8366;BME280;4220;42.502;24.188;2022-08-19T02:31:09;94951.53;;;21.08;82.10
8366;BME280;4220;42.502;24.188;2022-08-19T02:33:36;94963.97;;;21.04;83.55
8366;BME280;4220;42.502;24.188;2022-08-19T02:36:03;94971.13;;;20.95;84.40
8366;BME280;4220;42.502;24.188;2022-08-19T02:38:30;94959.13;;;20.82;85.16
8366;BME280;4220;42.502;24.188;2022-08-19T02:41:02;94947.72;;;20.91;84.53
8366;BME280;4220;42.502;24.188;2022-08-19T02:43:31;94976.97;;;20.78;85.53
8366;BME280;4220;42.502;24.188;2022-08-19T02:46:00;94954.09;;;20.76;85.72
8366;BME280;4220;42.502;24.188;2022-08-19T02:48:28;94959.59;;;20.66;86.63
8366;BME280;4220;42.502;24.188;2022-08-19T02:50:58;94968.19;;;20.44;87.94
8366;BME280;4220;42.502;24.188;2022-08-19T02:53:27;94949.00;;;20.51;87.95
8366;BME280;4220;42.502;24.188;2022-08-19T02:55:54;94937.41;;;20.27;87.72
8366;BME280;4220;42.502;24.188;2022-08-19T02:58:21;94975.69;;;20.18;89.63
8366;BME280;4220;42.502;24.188;2022-08-19T03:00:50;94937.00;;;20.09;88.78
8366;BME280;4220;42.502;24.188;2022-08-19T03:03:18;94984.06;;;20.46;88.12
8366;BME280;4220;42.502;24.188;2022-08-19T03:05:47;94864.00;;;19.87;87.38
8366;BME280;4220;42.502;24.188;2022-08-19T03:08:14;94979.25;;;20.66;86.92
8366;BME280;4220;42.502;24.188;2022-08-19T03:10:42;94975.38;;;20.54;87.30
8366;BME280;4220;42.502;24.188;2022-08-19T03:13:14;94982.69;;;20.48;87.85
8366;BME280;4220;42.502;24.188;2022-08-19T03:15:42;94983.56;;;20.44;88.04
8366;BME280;4220;42.502;24.188;2022-08-19T03:18:10;94955.91;;;20.33;87.87
8366;BME280;4220;42.502;24.188;2022-08-19T03:20:41;94989.19;;;20.71;87.00
8366;BME280;4220;42.502;24.188;2022-08-19T03:23:10;94979.50;;;20.70;86.23
8366;BME280;4220;42.502;24.188;2022-08-19T03:25:38;94987.09;;;20.86;85.82
8366;BME280;4220;42.502;24.188;2022-08-19T03:28:09;95000.38;;;20.83;85.25
8366;BME280;4220;42.502;24.188;2022-08-19T03:30:35;94997.38;;;20.61;86.98
8366;BME280;4220;42.502;24.188;2022-08-19T03:33:02;94996.94;;;20.54;87.33
8366;BME280;4220;42.502;24.188;2022-08-19T03:35:29;95000.13;;;20.27;90.27
8366;BME280;4220;42.502;24.188;2022-08-19T03:37:58;94997.53;;;20.46;89.46
8366;BME280;4220;42.502;24.188;2022-08-19T03:40:26;94983.88;;;20.37;87.74
8366;BME280;4220;42.502;24.188;2022-08-19T03:42:55;95008.41;;;20.36;89.22
8366;BME280;4220;42.502;24.188;2022-08-19T03:45:22;95008.38;;;20.41;89.28
8366;BME280;4220;42.502;24.188;2022-08-19T03:47:49;95008.31;;;20.46;88.87
8366;BME280;4220;42.502;24.188;2022-08-19T03:50:16;95017.06;;;20.33;89.46
8366;BME280;4220;42.502;24.188;2022-08-19T03:52:48;95011.16;;;20.31;89.78
8366;BME280;4220;42.502;24.188;2022-08-19T03:55:16;95012.84;;;20.50;88.99
8366;BME280;4220;42.502;24.188;2022-08-19T03:57:44;95019.88;;;20.75;87.25
8366;BME280;4220;42.502;24.188;2022-08-19T04:00:14;95024.75;;;20.97;85.69
8366;BME280;4220;42.502;24.188;2022-08-19T04:02:41;95011.72;;;21.04;85.19
8366;BME280;4220;42.502;24.188;2022-08-19T04:05:09;95027.47;;;21.20;84.60
8366;BME280;4220;42.502;24.188;2022-08-19T04:07:36;95030.28;;;21.10;85.50
8366;BME280;4220;42.502;24.188;2022-08-19T04:10:04;95039.84;;;21.21;85.13
8366;BME280;4220;42.502;24.188;2022-08-19T04:12:31;95036.97;;;21.36;83.54
8366;BME280;4220;42.502;24.188;2022-08-19T04:14:59;95033.00;;;21.29;83.02
8366;BME280;4220;42.502;24.188;2022-08-19T04:17:26;95029.69;;;21.37;82.59
8366;BME280;4220;42.502;24.188;2022-08-19T04:19:53;95046.00;;;21.27;83.00
8366;BME280;4220;42.502;24.188;2022-08-19T04:22:20;95050.28;;;21.28;83.37
8366;BME280;4220;42.502;24.188;2022-08-19T04:24:47;95039.72;;;21.31;82.90
8366;BME280;4220;42.502;24.188;2022-08-19T04:27:14;95037.66;;;21.23;83.60
8366;BME280;4220;42.502;24.188;2022-08-19T04:29:41;95044.03;;;21.09;84.45
8366;BME280;4220;42.502;24.188;2022-08-19T04:32:10;95047.53;;;21.09;84.80
8366;BME280;4220;42.502;24.188;2022-08-19T04:34:37;95043.13;;;21.18;84.76
8366;BME280;4220;42.502;24.188;2022-08-19T04:37:05;95007.44;;;21.03;83.41
8366;BME280;4220;42.502;24.188;2022-08-19T04:39:37;95028.13;;;21.31;82.70
8366;BME280;4220;42.502;24.188;2022-08-19T04:42:22;95036.75;;;21.52;82.02
8366;BME280;4220;42.502;24.188;2022-08-19T04:45:10;95023.47;;;21.55;81.32
8366;BME280;4220;42.502;24.188;2022-08-19T04:47:40;95041.88;;;21.72;80.64
8366;BME280;4220;42.502;24.188;2022-08-19T04:50:09;95022.97;;;21.53;80.86
8366;BME280;4220;42.502;24.188;2022-08-19T04:52:37;95043.19;;;21.74;80.74
8366;BME280;4220;42.502;24.188;2022-08-19T04:55:08;95038.72;;;21.83;80.24
8366;BME280;4220;42.502;24.188;2022-08-19T04:57:35;95024.22;;;21.98;79.63
8366;BME280;4220;42.502;24.188;2022-08-19T05:00:08;95030.41;;;22.17;79.05
8366;BME280;4220;42.502;24.188;2022-08-19T05:02:36;95041.78;;;22.33;78.35
8366;BME280;4220;42.502;24.188;2022-08-19T05:05:05;95040.66;;;22.34;78.02
8366;BME280;4220;42.502;24.188;2022-08-19T05:07:32;94993.94;;;22.01;77.85
8366;BME280;4220;42.502;24.188;2022-08-19T05:09:59;95034.47;;;22.33;77.58
8366;BME280;4220;42.502;24.188;2022-08-19T05:12:26;95040.47;;;22.44;77.25
8366;BME280;4220;42.502;24.188;2022-08-19T05:14:56;95044.19;;;22.66;76.23
8366;BME280;4220;42.502;24.188;2022-08-19T05:17:23;95041.69;;;22.84;75.51
8366;BME280;4220;42.502;24.188;2022-08-19T05:19:50;95044.53;;;22.92;75.56
8366;BME280;4220;42.502;24.188;2022-08-19T05:22:36;95041.50;;;23.07;75.33
8366;BME280;4220;42.502;24.188;2022-08-19T05:25:06;95035.59;;;23.19;74.56
8366;BME280;4220;42.502;24.188;2022-08-19T05:27:33;95014.47;;;23.21;73.36
8366;BME280;4220;42.502;24.188;2022-08-19T05:30:00;95050.06;;;23.42;73.57
8366;BME280;4220;42.502;24.188;2022-08-19T05:32:27;95048.53;;;23.49;73.27
8366;BME280;4220;42.502;24.188;2022-08-19T05:34:54;95055.22;;;23.65;72.29
8366;BME280;4220;42.502;24.188;2022-08-19T05:37:21;95051.94;;;23.68;72.17
8366;BME280;4220;42.502;24.188;2022-08-19T05:39:50;95048.19;;;23.78;72.02
8366;BME280;4220;42.502;24.188;2022-08-19T05:42:16;95045.53;;;23.86;71.21
8366;BME280;4220;42.502;24.188;2022-08-19T05:44:45;95058.34;;;24.08;70.62
8366;BME280;4220;42.502;24.188;2022-08-19T05:47:15;95060.69;;;24.23;69.65
8366;BME280;4220;42.502;24.188;2022-08-19T05:49:42;95066.88;;;24.37;69.13
8366;BME280;4220;42.502;24.188;2022-08-19T05:52:11;95053.25;;;24.51;68.69
8366;BME280;4220;42.502;24.188;2022-08-19T05:54:41;95034.06;;;24.47;68.18
8366;BME280;4220;42.502;24.188;2022-08-19T05:57:09;95055.44;;;24.71;67.43
8366;BME280;4220;42.502;24.188;2022-08-19T05:59:36;95067.88;;;24.72;66.95
8366;BME280;4220;42.502;24.188;2022-08-19T06:02:04;95073.56;;;24.84;65.92
8366;BME280;4220;42.502;24.188;2022-08-19T06:04:32;95074.44;;;24.93;65.70
8366;BME280;4220;42.502;24.188;2022-08-19T06:06:59;95059.75;;;24.94;65.14
8366;BME280;4220;42.502;24.188;2022-08-19T06:09:26;95072.63;;;25.19;64.41
8366;BME280;4220;42.502;24.188;2022-08-19T06:11:56;95066.59;;;25.22;63.68
8366;BME280;4220;42.502;24.188;2022-08-19T06:14:28;95067.88;;;25.33;63.23
8366;BME280;4220;42.502;24.188;2022-08-19T06:16:57;95047.63;;;25.40;62.26
8366;BME280;4220;42.502;24.188;2022-08-19T06:19:25;95068.81;;;25.60;61.78
8366;BME280;4220;42.502;24.188;2022-08-19T06:21:54;95081.81;;;25.80;61.46
8366;BME280;4220;42.502;24.188;2022-08-19T06:24:22;95027.75;;;25.53;60.52
8366;BME280;4220;42.502;24.188;2022-08-19T06:26:51;95078.63;;;26.04;60.01
8366;BME280;4220;42.502;24.188;2022-08-19T06:29:20;95086.81;;;26.21;59.23
8366;BME280;4220;42.502;24.188;2022-08-19T06:31:51;95086.03;;;26.37;58.77
8366;BME280;4220;42.502;24.188;2022-08-19T06:34:19;95053.41;;;26.29;57.89
8366;BME280;4220;42.502;24.188;2022-08-19T06:36:47;95054.50;;;26.45;57.30
8366;BME280;4220;42.502;24.188;2022-08-19T06:39:17;95075.91;;;26.72;57.31
8366;BME280;4220;42.502;24.188;2022-08-19T06:41:47;95082.97;;;26.82;57.21
8366;BME280;4220;42.502;24.188;2022-08-19T06:44:14;95088.06;;;26.92;57.00
8366;BME280;4220;42.502;24.188;2022-08-19T06:46:42;95048.22;;;26.79;56.69
8366;BME280;4220;42.502;24.188;2022-08-19T06:49:11;95087.66;;;27.19;56.46
8366;BME280;4220;42.502;24.188;2022-08-19T06:51:40;95074.50;;;27.21;56.41
8366;BME280;4220;42.502;24.188;2022-08-19T06:54:07;95048.72;;;27.18;56.57
8366;BME280;4220;42.502;24.188;2022-08-19T06:56:34;95085.47;;;27.50;56.36
8366;BME280;4220;42.502;24.188;2022-08-19T06:59:04;95087.38;;;27.58;56.24
8366;BME280;4220;42.502;24.188;2022-08-19T07:01:34;95091.19;;;27.66;54.55
8366;BME280;4220;42.502;24.188;2022-08-19T07:04:03;95083.44;;;27.76;53.74
8366;BME280;4220;42.502;24.188;2022-08-19T07:06:32;95076.66;;;27.82;54.15
8366;BME280;4220;42.502;24.188;2022-08-19T07:08:59;95083.91;;;27.99;53.18
8366;BME280;4220;42.502;24.188;2022-08-19T07:11:26;95083.69;;;28.13;52.86
8366;BME280;4220;42.502;24.188;2022-08-19T07:13:53;95085.53;;;28.21;51.71
8366;BME280;4220;42.502;24.188;2022-08-19T07:16:21;95083.31;;;28.23;51.71
8366;BME280;4220;42.502;24.188;2022-08-19T07:18:49;95085.28;;;28.34;51.20
8366;BME280;4220;42.502;24.188;2022-08-19T07:21:18;95064.38;;;28.38;50.76
8366;BME280;4220;42.502;24.188;2022-08-19T07:23:48;95081.41;;;28.56;50.24
8366;BME280;4220;42.502;24.188;2022-08-19T07:26:17;95059.31;;;28.49;49.78
8366;BME280;4220;42.502;24.188;2022-08-19T07:28:45;95038.63;;;28.48;49.91
8366;BME280;4220;42.502;24.188;2022-08-19T07:31:15;95084.03;;;28.85;49.69
8366;BME280;4220;42.502;24.188;2022-08-19T07:33:43;95070.16;;;28.78;49.46
8366;BME280;4220;42.502;24.188;2022-08-19T07:36:12;95036.56;;;28.66;49.20
8366;BME280;4220;42.502;24.188;2022-08-19T07:38:42;95050.34;;;28.69;49.66
8366;BME280;4220;42.502;24.188;2022-08-19T07:41:11;95038.06;;;28.75;49.38
8366;BME280;4220;42.502;24.188;2022-08-19T07:43:39;95075.91;;;29.09;49.08
8366;BME280;4220;42.502;24.188;2022-08-19T07:46:06;95072.91;;;29.23;48.64
8366;BME280;4220;42.502;24.188;2022-08-19T07:48:34;95067.75;;;29.22;48.22
8366;BME280;4220;42.502;24.188;2022-08-19T07:51:08;95065.06;;;29.34;48.05
8366;BME280;4220;42.502;24.188;2022-08-19T07:53:37;95078.16;;;29.28;47.97
8366;BME280;4220;42.502;24.188;2022-08-19T07:56:05;95080.00;;;29.36;48.11
8366;BME280;4220;42.502;24.188;2022-08-19T07:58:36;95069.41;;;29.47;48.17
8366;BME280;4220;42.502;24.188;2022-08-19T08:01:07;95075.31;;;29.61;47.78
8366;BME280;4220;42.502;24.188;2022-08-19T08:03:36;95074.63;;;29.64;47.81
8366;BME280;4220;42.502;24.188;2022-08-19T08:06:20;95066.91;;;29.78;46.91
8366;BME280;4220;42.502;24.188;2022-08-19T08:09:05;95074.78;;;29.92;46.70
8366;BME280;4220;42.502;24.188;2022-08-19T08:11:43;95064.28;;;29.82;46.84
8366;BME280;4220;42.502;24.188;2022-08-19T08:14:17;95003.94;;;29.50;47.05
8366;BME280;4220;42.502;24.188;2022-08-19T08:16:44;95062.00;;;29.96;47.22
8366;BME280;4220;42.502;24.188;2022-08-19T08:19:12;95058.22;;;30.12;46.73
8366;BME280;4220;42.502;24.188;2022-08-19T08:21:41;95063.94;;;30.07;46.87
8366;BME280;4220;42.502;24.188;2022-08-19T08:24:08;95060.59;;;30.14;46.49
8366;BME280;4220;42.502;24.188;2022-08-19T08:26:36;95051.00;;;30.32;45.84
8366;BME280;4220;42.502;24.188;2022-08-19T08:29:03;95055.84;;;30.51;45.38
8366;BME280;4220;42.502;24.188;2022-08-19T08:31:31;95046.19;;;30.69;45.59
8366;BME280;4220;42.502;24.188;2022-08-19T08:33:59;95047.22;;;30.92;45.27
8366;BME280;4220;42.502;24.188;2022-08-19T08:36:26;95048.59;;;30.98;44.30
8366;BME280;4220;42.502;24.188;2022-08-19T08:38:53;95052.19;;;31.02;44.49
8366;BME280;4220;42.502;24.188;2022-08-19T08:41:27;95052.63;;;31.04;44.18
8366;BME280;4220;42.502;24.188;2022-08-19T08:43:55;95050.25;;;31.18;43.66
8366;BME280;4220;42.502;24.188;2022-08-19T08:46:27;95048.41;;;31.38;43.07
8366;BME280;4220;42.502;24.188;2022-08-19T08:49:01;95044.28;;;31.59;42.51
8366;BME280;4220;42.502;24.188;2022-08-19T08:51:34;95048.06;;;31.71;41.71
8366;BME280;4220;42.502;24.188;2022-08-19T08:54:05;95040.56;;;31.67;41.10
8366;BME280;4220;42.502;24.188;2022-08-19T08:56:33;95006.78;;;31.63;41.59
8366;BME280;4220;42.502;24.188;2022-08-19T08:59:03;95026.69;;;31.95;40.83
8366;BME280;4220;42.502;24.188;2022-08-19T09:01:32;95029.16;;;32.16;40.17
8366;BME280;4220;42.502;24.188;2022-08-19T09:04:02;95021.50;;;32.25;40.22
8366;BME280;4220;42.502;24.188;2022-08-19T09:06:37;95027.84;;;32.29;39.75
8366;BME280;4220;42.502;24.188;2022-08-19T09:09:13;95020.25;;;32.03;40.00
8366;BME280;4220;42.502;24.188;2022-08-19T09:11:52;95020.25;;;32.03;39.59
8366;BME280;4220;42.502;24.188;2022-08-19T09:14:32;95015.72;;;32.11;39.99
8366;BME280;4220;42.502;24.188;2022-08-19T09:17:00;94997.78;;;31.98;38.76
8366;BME280;4220;42.502;24.188;2022-08-19T09:19:30;95017.66;;;32.10;38.38
8366;BME280;4220;42.502;24.188;2022-08-19T09:21:57;95019.75;;;32.17;38.65
8366;BME280;4220;42.502;24.188;2022-08-19T09:24:26;95015.50;;;32.39;37.87
8366;BME280;4220;42.502;24.188;2022-08-19T09:26:53;95004.69;;;32.65;37.66
8366;BME280;4220;42.502;24.188;2022-08-19T09:29:20;95014.84;;;32.83;37.49
8366;BME280;4220;42.502;24.188;2022-08-19T09:31:47;95012.88;;;33.03;36.41
8366;BME280;4220;42.502;24.188;2022-08-19T09:34:14;95019.41;;;33.18;36.32
8366;BME280;4220;42.502;24.188;2022-08-19T09:36:43;95018.13;;;33.34;35.01
8366;BME280;4220;42.502;24.188;2022-08-19T09:39:10;95017.09;;;33.42;35.74
8366;BME280;4220;42.502;24.188;2022-08-19T09:41:36;95005.84;;;33.51;35.02
8366;BME280;4220;42.502;24.188;2022-08-19T09:44:03;94992.97;;;33.55;35.36
8366;BME280;4220;42.502;24.188;2022-08-19T09:46:30;94999.78;;;33.42;33.42
8366;BME280;4220;42.502;24.188;2022-08-19T09:48:58;94999.38;;;33.40;33.79
8366;BME280;4220;42.502;24.188;2022-08-19T09:51:27;94956.81;;;32.85;33.74
8366;BME280;4220;42.502;24.188;2022-08-19T09:54:00;94998.03;;;33.08;33.58
8366;BME280;4220;42.502;24.188;2022-08-19T09:56:28;94994.38;;;33.23;33.66
8366;BME280;4220;42.502;24.188;2022-08-19T09:58:57;94991.13;;;33.40;32.94
8366;BME280;4220;42.502;24.188;2022-08-19T10:01:26;94988.38;;;33.40;32.06
8366;BME280;4220;42.502;24.188;2022-08-19T10:03:55;94988.88;;;33.23;32.05
8366;BME280;4220;42.502;24.188;2022-08-19T10:06:25;94977.50;;;33.02;32.67
8366;BME280;4220;42.502;24.188;2022-08-19T10:08:56;94978.78;;;33.30;31.89
8366;BME280;4220;42.502;24.188;2022-08-19T10:11:22;94981.84;;;33.48;31.25
8366;BME280;4220;42.502;24.188;2022-08-19T10:13:49;94974.31;;;33.45;31.42
8366;BME280;4220;42.502;24.188;2022-08-19T10:16:20;94977.56;;;33.50;31.21
8366;BME280;4220;42.502;24.188;2022-08-19T10:18:47;94979.03;;;33.44;31.28
8366;BME280;4220;42.502;24.188;2022-08-19T10:21:18;94976.97;;;33.61;31.31
8366;BME280;4220;42.502;24.188;2022-08-19T10:23:48;94977.63;;;34.06;30.03
8366;BME280;4220;42.502;24.188;2022-08-19T10:26:19;94985.66;;;34.18;29.56
8366;BME280;4220;42.502;24.188;2022-08-19T10:28:47;94973.94;;;34.25;30.11
8366;BME280;4220;42.502;24.188;2022-08-19T10:31:16;94979.16;;;34.34;30.58
8366;BME280;4220;42.502;24.188;2022-08-19T10:33:45;94974.56;;;34.78;30.27
8366;BME280;4220;42.502;24.188;2022-08-19T10:36:15;94972.97;;;35.10;29.00
8366;BME280;4220;42.502;24.188;2022-08-19T10:38:43;94963.00;;;35.02;29.27
8366;BME280;4220;42.502;24.188;2022-08-19T10:41:14;94961.00;;;34.99;29.70
8366;BME280;4220;42.502;24.188;2022-08-19T10:43:43;94948.75;;;34.97;28.91
8366;BME280;4220;42.502;24.188;2022-08-19T10:46:14;94970.13;;;35.47;28.87
8366;BME280;4220;42.502;24.188;2022-08-19T10:48:41;94953.78;;;35.72;28.29
8366;BME280;4220;42.502;24.188;2022-08-19T10:51:09;94971.25;;;35.93;28.43
8366;BME280;4220;42.502;24.188;2022-08-19T10:53:53;94962.88;;;35.83;28.19
8366;BME280;4220;42.502;24.188;2022-08-19T10:56:21;94943.31;;;35.47;28.99
8366;BME280;4220;42.502;24.188;2022-08-19T10:59:07;94966.84;;;35.85;28.24
8366;BME280;4220;42.502;24.188;2022-08-19T11:01:34;94948.84;;;36.02;28.04
8366;BME280;4220;42.502;24.188;2022-08-19T11:04:03;94954.44;;;36.16;27.82
8366;BME280;4220;42.502;24.188;2022-08-19T11:06:33;94962.88;;;36.48;28.02
8366;BME280;4220;42.502;24.188;2022-08-19T11:09:00;94950.59;;;36.45;27.73
8366;BME280;4220;42.502;24.188;2022-08-19T11:11:27;94962.56;;;36.70;27.78
8366;BME280;4220;42.502;24.188;2022-08-19T11:13:54;94960.63;;;36.92;27.72
8366;BME280;4220;42.502;24.188;2022-08-19T11:16:24;94957.53;;;37.15;27.03
8366;BME280;4220;42.502;24.188;2022-08-19T11:18:53;94958.75;;;37.39;26.76
8366;BME280;4220;42.502;24.188;2022-08-19T11:21:23;94951.63;;;37.55;26.16
8366;BME280;4220;42.502;24.188;2022-08-19T11:23:52;94910.91;;;37.17;26.58
8366;BME280;4220;42.502;24.188;2022-08-19T11:26:20;94953.59;;;37.55;26.61
8366;BME280;4220;42.502;24.188;2022-08-19T11:28:48;94962.69;;;37.59;26.15
8366;BME280;4220;42.502;24.188;2022-08-19T11:31:19;94953.59;;;37.37;26.26
8366;BME280;4220;42.502;24.188;2022-08-19T11:33:48;94944.50;;;37.26;25.93
8366;BME280;4220;42.502;24.188;2022-08-19T11:36:16;94950.84;;;37.58;25.32
8366;BME280;4220;42.502;24.188;2022-08-19T11:38:44;94938.56;;;37.73;24.77
8366;BME280;4220;42.502;24.188;2022-08-19T11:41:15;94935.31;;;38.10;24.81
8366;BME280;4220;42.502;24.188;2022-08-19T11:43:42;94944.59;;;38.69;24.63
8366;BME280;4220;42.502;24.188;2022-08-19T11:46:11;94918.75;;;38.90;24.33
8366;BME280;4220;42.502;24.188;2022-08-19T11:48:40;94935.09;;;38.70;24.72
8366;BME280;4220;42.502;24.188;2022-08-19T11:51:18;94924.31;;;37.89;25.32
8366;BME280;4220;42.502;24.188;2022-08-19T11:53:59;94915.56;;;38.05;25.51
8366;BME280;4220;42.502;24.188;2022-08-19T11:56:27;94928.50;;;38.43;25.50
8366;BME280;4220;42.502;24.188;2022-08-19T11:58:54;94896.44;;;38.45;25.13
8366;BME280;4220;42.502;24.188;2022-08-19T12:01:24;94928.22;;;38.96;24.17
8366;BME280;4220;42.502;24.188;2022-08-19T12:03:52;94926.47;;;39.19;24.08
8366;BME280;4220;42.502;24.188;2022-08-19T12:06:23;94908.41;;;39.49;24.17
8366;BME280;4220;42.502;24.188;2022-08-19T12:08:54;94921.28;;;39.73;23.93
8366;BME280;4220;42.502;24.188;2022-08-19T12:11:22;94917.28;;;39.74;23.02
8366;BME280;4220;42.502;24.188;2022-08-19T12:13:49;94903.94;;;39.99;22.49
8366;BME280;4220;42.502;24.188;2022-08-19T12:16:22;94900.19;;;40.16;23.19
8366;BME280;4220;42.502;24.188;2022-08-19T12:18:50;94908.25;;;40.07;23.39
8366;BME280;4220;42.502;24.188;2022-08-19T12:21:19;94883.25;;;40.04;23.18
8366;BME280;4220;42.502;24.188;2022-08-19T12:23:49;94893.72;;;39.89;23.43
8366;BME280;4220;42.502;24.188;2022-08-19T12:26:17;94865.28;;;39.78;23.69
8366;BME280;4220;42.502;24.188;2022-08-19T12:28:44;94902.69;;;40.37;23.43
8366;BME280;4220;42.502;24.188;2022-08-19T12:31:11;94901.19;;;40.63;22.87
8366;BME280;4220;42.502;24.188;2022-08-19T12:33:38;94898.88;;;40.85;22.53
8366;BME280;4220;42.502;24.188;2022-08-19T12:36:10;94892.25;;;40.79;22.48
8366;BME280;4220;42.502;24.188;2022-08-19T12:38:38;94895.72;;;39.89;23.25
8366;BME280;4220;42.502;24.188;2022-08-19T12:41:09;94886.47;;;38.55;24.60
8366;BME280;4220;42.502;24.188;2022-08-19T12:43:36;94889.56;;;38.64;24.86
8366;BME280;4220;42.502;24.188;2022-08-19T12:46:06;94889.97;;;39.25;24.53
8366;BME280;4220;42.502;24.188;2022-08-19T12:48:33;94887.88;;;39.80;23.82
8366;BME280;4220;42.502;24.188;2022-08-19T12:51:05;94860.28;;;40.30;22.61
8366;BME280;4220;42.502;24.188;2022-08-19T12:53:33;94891.81;;;41.07;21.45
8366;BME280;4220;42.502;24.188;2022-08-19T12:56:01;94884.25;;;41.57;21.62
8366;BME280;4220;42.502;24.188;2022-08-19T12:58:29;94890.84;;;41.44;21.41
8366;BME280;4220;42.502;24.188;2022-08-19T13:00:59;94887.81;;;40.81;21.84
8366;BME280;4220;42.502;24.188;2022-08-19T13:03:26;94880.72;;;40.16;22.05
8366;BME280;4220;42.502;24.188;2022-08-19T13:05:55;94885.03;;;39.87;22.42
8366;BME280;4220;42.502;24.188;2022-08-19T13:08:22;94884.34;;;39.76;22.57
8366;BME280;4220;42.502;24.188;2022-08-19T13:10:49;94880.38;;;39.77;22.42
8366;BME280;4220;42.502;24.188;2022-08-19T13:13:16;94879.34;;;39.12;23.00
8366;BME280;4220;42.502;24.188;2022-08-19T13:15:44;94870.34;;;38.98;23.60
8366;BME280;4220;42.502;24.188;2022-08-19T13:18:12;94874.50;;;38.69;24.05